createdAt,value
2017-07-06T00:00:53.223Z,0
2017-07-06T00:01:53.264Z,0
2017-07-06T00:02:53.301Z,0
2017-07-06T00:03:53.339Z,0
2017-07-06T00:04:53.380Z,0
2017-07-06T00:05:53.417Z,0
2017-07-06T00:06:53.455Z,0
2017-07-06T00:07:53.494Z,0
2017-07-06T00:08:53.534Z,0
2017-07-06T00:09:53.573Z,0
2017-07-06T00:10:53.613Z,0
2017-07-06T00:11:53.652Z,0
2017-07-06T00:12:53.690Z,0
2017-07-06T00:13:53.732Z,0
2017-07-06T00:14:53.769Z,0
2017-07-06T00:15:53.812Z,0
2017-07-06T00:16:53.848Z,0
2017-07-06T00:17:53.886Z,0
2017-07-06T00:18:53.960Z,0
2017-07-06T00:19:53.962Z,0
2017-07-06T00:20:54.003Z,0
2017-07-06T00:21:54.042Z,0
2017-07-06T00:22:54.076Z,0
2017-07-06T00:23:54.119Z,0
2017-07-06T00:24:54.155Z,0
2017-07-06T00:25:54.194Z,0
2017-07-06T00:26:54.232Z,0
2017-07-06T00:27:54.276Z,0
2017-07-06T00:28:54.312Z,0
2017-07-06T00:29:54.352Z,0
2017-07-06T00:30:54.393Z,0
2017-07-06T00:31:54.425Z,0
2017-07-06T00:32:54.469Z,0
2017-07-06T00:33:54.504Z,0
2017-07-06T00:34:54.545Z,0
2017-07-06T00:35:54.584Z,0
2017-07-06T00:36:54.622Z,0
2017-07-06T00:37:54.980Z,0
2017-07-06T00:38:54.708Z,0
2017-07-06T00:39:54.771Z,0
2017-07-06T00:40:54.776Z,0
2017-07-06T00:41:54.817Z,0
2017-07-06T00:42:54.856Z,0
2017-07-06T00:43:54.897Z,0
2017-07-06T00:44:54.931Z,0
2017-07-06T00:45:54.972Z,0
2017-07-06T00:46:55.011Z,0
2017-07-06T00:47:55.429Z,0
2017-07-06T00:48:55.087Z,0
2017-07-06T00:49:55.135Z,0
2017-07-06T00:50:55.163Z,0
2017-07-06T00:51:55.201Z,0
2017-07-06T00:52:55.240Z,0
2017-07-06T00:53:55.283Z,0
2017-07-06T00:54:55.323Z,0
2017-07-06T00:55:55.356Z,0
2017-07-06T00:56:55.396Z,0
2017-07-06T00:57:55.435Z,0
2017-07-06T00:58:55.471Z,0
2017-07-06T00:59:55.520Z,0
2017-07-06T01:00:55.551Z,0
2017-07-06T01:01:55.590Z,0
2017-07-06T01:02:55.630Z,0
2017-07-06T01:03:55.668Z,0
2017-07-06T01:04:55.711Z,0
2017-07-06T01:05:55.746Z,0
2017-07-06T01:06:56.096Z,0
2017-07-06T01:07:55.822Z,0
2017-07-06T01:08:55.862Z,0
2017-07-06T01:09:55.905Z,0
2017-07-06T01:10:55.939Z,0
2017-07-06T01:11:55.976Z,0
2017-07-06T01:12:56.014Z,0
2017-07-06T01:13:56.055Z,0
2017-07-06T01:14:56.093Z,0
2017-07-06T01:15:56.132Z,0
2017-07-06T01:16:56.170Z,0
2017-07-06T01:17:56.205Z,0
2017-07-06T01:18:56.248Z,0
2017-07-06T01:19:56.285Z,0
2017-07-06T01:20:56.323Z,0
2017-07-06T01:21:56.358Z,0
2017-07-06T01:22:56.399Z,0
2017-07-06T01:23:56.441Z,0
2017-07-06T01:24:56.477Z,0
2017-07-06T01:25:56.518Z,0
2017-07-06T01:26:56.555Z,0
2017-07-06T01:27:56.593Z,0
2017-07-06T01:28:56.631Z,0
2017-07-06T01:29:56.671Z,0
2017-07-06T01:30:56.709Z,0
2017-07-06T01:31:56.746Z,0
2017-07-06T01:32:56.784Z,0
2017-07-06T01:33:56.825Z,0
2017-07-06T01:34:56.866Z,0
2017-07-06T01:35:56.903Z,0
2017-07-06T01:36:56.938Z,0
2017-07-06T01:37:56.981Z,0
2017-07-06T01:38:57.019Z,0
2017-07-06T01:39:57.057Z,0
2017-07-06T01:40:57.097Z,0
2017-07-06T01:41:57.132Z,0
2017-07-06T01:42:57.172Z,0
2017-07-06T01:43:57.211Z,0
2017-07-06T01:44:57.260Z,0
2017-07-06T01:45:57.285Z,0
2017-07-06T01:46:57.325Z,0
2017-07-06T01:47:57.363Z,0
2017-07-06T01:48:57.403Z,0
2017-07-06T01:49:57.441Z,0
2017-07-06T01:50:57.487Z,0
2017-07-06T01:51:57.517Z,0
2017-07-06T01:52:57.607Z,0
2017-07-06T01:53:57.594Z,0
2017-07-06T01:54:57.633Z,0
2017-07-06T01:55:57.672Z,0
2017-07-06T01:56:57.714Z,0
2017-07-06T01:57:57.759Z,0
2017-07-06T01:58:57.788Z,0
2017-07-06T01:59:57.826Z,0
2017-07-06T02:00:57.866Z,0
2017-07-06T02:01:57.905Z,0
2017-07-06T02:02:57.943Z,0
2017-07-06T02:03:57.984Z,0
2017-07-06T02:04:58.019Z,0
2017-07-06T02:05:58.061Z,0
2017-07-06T02:06:58.095Z,0
2017-07-06T02:07:58.133Z,0
2017-07-06T02:08:58.174Z,0
2017-07-06T02:09:58.213Z,0
2017-07-06T02:10:58.249Z,0
2017-07-06T02:11:58.288Z,0
2017-07-06T02:12:58.327Z,0
2017-07-06T02:13:58.365Z,0
2017-07-06T02:14:58.403Z,0
2017-07-06T02:15:58.443Z,0
2017-07-06T02:16:58.482Z,0
2017-07-06T02:17:58.837Z,4
2017-07-06T02:18:58.559Z,4
2017-07-06T02:19:58.913Z,4
2017-07-06T02:20:58.633Z,0
2017-07-06T02:21:58.671Z,0
2017-07-06T02:22:58.706Z,4
2017-07-06T02:23:58.748Z,4
2017-07-06T02:24:58.789Z,4
2017-07-06T02:25:58.825Z,4
2017-07-06T02:26:58.865Z,4
2017-07-06T02:27:58.905Z,8
2017-07-06T02:28:58.940Z,4
2017-07-06T02:29:58.979Z,8
2017-07-06T02:30:59.022Z,8
2017-07-06T02:31:59.055Z,8
2017-07-06T02:32:59.099Z,8
2017-07-06T02:33:59.134Z,12
2017-07-06T02:34:59.170Z,12
2017-07-06T02:35:59.211Z,16
2017-07-06T02:36:59.250Z,16
2017-07-06T02:37:59.283Z,20
2017-07-06T02:38:59.326Z,24
2017-07-06T02:39:59.362Z,24
2017-07-06T02:40:59.404Z,28
2017-07-06T02:41:59.442Z,32
2017-07-06T02:42:59.479Z,36
2017-07-06T02:43:59.518Z,40
2017-07-06T02:44:59.555Z,44
2017-07-06T02:45:59.597Z,52
2017-07-06T02:46:59.631Z,56
2017-07-06T02:47:59.671Z,60
2017-07-06T02:48:59.709Z,68
2017-07-06T02:50:00.061Z,72
2017-07-06T02:50:59.784Z,76
2017-07-06T02:51:59.823Z,84
2017-07-06T02:52:59.860Z,92
2017-07-06T02:53:59.902Z,96
2017-07-06T02:54:59.939Z,104
2017-07-06T02:55:59.981Z,112
2017-07-06T02:57:00.017Z,116
2017-07-06T02:58:00.054Z,128
2017-07-06T02:59:00.092Z,140
2017-07-06T03:00:00.129Z,152
2017-07-06T03:01:00.167Z,172
2017-07-06T03:02:00.205Z,188
2017-07-06T03:03:00.243Z,200
2017-07-06T03:04:00.282Z,220
2017-07-06T03:05:00.320Z,240
2017-07-06T03:06:00.361Z,256
2017-07-06T03:07:00.399Z,276
2017-07-06T03:08:00.433Z,304
2017-07-06T03:09:00.475Z,324
2017-07-06T03:10:00.514Z,344
2017-07-06T03:11:00.552Z,368
2017-07-06T03:12:00.593Z,396
2017-07-06T03:13:00.629Z,428
2017-07-06T03:14:00.666Z,456
2017-07-06T03:15:01.019Z,484
2017-07-06T03:16:00.742Z,508
2017-07-06T03:17:00.779Z,532
2017-07-06T03:18:00.817Z,556
2017-07-06T03:19:00.865Z,576
2017-07-06T03:20:00.894Z,600
2017-07-06T03:21:00.933Z,624
2017-07-06T03:22:00.970Z,660
2017-07-06T03:23:01.010Z,688
2017-07-06T03:24:01.048Z,724
2017-07-06T03:25:01.087Z,748
2017-07-06T03:26:01.126Z,764
2017-07-06T03:27:01.163Z,788
2017-07-06T03:28:01.205Z,808
2017-07-06T03:29:01.236Z,828
2017-07-06T03:30:01.279Z,860
2017-07-06T03:31:01.320Z,896
2017-07-06T03:32:01.357Z,940
2017-07-06T03:33:01.396Z,992
2017-07-06T03:34:01.433Z,1048
2017-07-06T03:35:01.471Z,1108
2017-07-06T03:36:01.513Z,1160
2017-07-06T03:37:01.546Z,1220
2017-07-06T03:38:01.589Z,1280
2017-07-06T03:39:01.624Z,1336
2017-07-06T03:40:01.662Z,1424
2017-07-06T03:41:01.710Z,1524
2017-07-06T03:42:01.740Z,1624
2017-07-06T03:43:01.780Z,1684
2017-07-06T03:44:01.818Z,1736
2017-07-06T03:45:01.857Z,1800
2017-07-06T03:46:01.895Z,1844
2017-07-06T03:47:01.934Z,1904
2017-07-06T03:48:01.971Z,1920
2017-07-06T03:49:02.012Z,1972
2017-07-06T03:50:02.050Z,2136
2017-07-06T03:51:02.089Z,2296
2017-07-06T03:52:02.129Z,2456
2017-07-06T03:53:02.166Z,2488
2017-07-06T03:54:02.522Z,2524
2017-07-06T03:55:02.242Z,2552
2017-07-06T03:56:02.283Z,2412
2017-07-06T03:57:02.323Z,2492
2017-07-06T03:58:02.359Z,2576
2017-07-06T03:59:02.399Z,2680
2017-07-06T04:00:02.438Z,2940
2017-07-06T04:01:02.478Z,3196
2017-07-06T04:02:02.513Z,3552
2017-07-06T04:03:02.554Z,3844
2017-07-06T04:04:02.593Z,4108
2017-07-06T04:05:02.632Z,4272
2017-07-06T04:06:02.671Z,4452
2017-07-06T04:07:02.712Z,4460
2017-07-06T04:08:02.748Z,4640
2017-07-06T04:09:02.787Z,4928
2017-07-06T04:10:02.829Z,5200
2017-07-06T04:11:02.869Z,5356
2017-07-06T04:12:02.908Z,5528
2017-07-06T04:13:02.951Z,5404
2017-07-06T04:14:02.988Z,5324
2017-07-06T04:15:03.027Z,5368
2017-07-06T04:16:03.068Z,5588
2017-07-06T04:17:03.109Z,6132
2017-07-06T04:18:03.152Z,6356
2017-07-06T04:19:03.189Z,6236
2017-07-06T04:20:03.229Z,5924
2017-07-06T04:21:03.267Z,6308
2017-07-06T04:22:03.307Z,7036
2017-07-06T04:23:03.351Z,7664
2017-07-06T04:24:03.390Z,7848
2017-07-06T04:25:03.746Z,7908
2017-07-06T04:26:03.788Z,7924
2017-07-06T04:27:03.514Z,7920
2017-07-06T04:28:03.555Z,7812
2017-07-06T04:29:03.596Z,7988
2017-07-06T04:30:03.639Z,7836
2017-07-06T04:31:03.681Z,8240
2017-07-06T04:32:03.721Z,8720
2017-07-06T04:33:03.764Z,8856
2017-07-06T04:34:03.805Z,9032
2017-07-06T04:35:03.847Z,8940
2017-07-06T04:36:03.888Z,9412
2017-07-06T04:37:03.928Z,9928
2017-07-06T04:38:03.976Z,10324
2017-07-06T04:39:04.015Z,10744
2017-07-06T04:40:04.057Z,10340
2017-07-06T04:41:04.103Z,8668
2017-07-06T04:42:04.141Z,7584
2017-07-06T04:43:04.183Z,7584
2017-07-06T04:44:04.228Z,7620
2017-07-06T04:45:04.274Z,7192
2017-07-06T04:46:04.311Z,9356
2017-07-06T04:47:04.355Z,9080
2017-07-06T04:48:04.397Z,8476
2017-07-06T04:49:04.441Z,8124
2017-07-06T04:50:04.482Z,8660
2017-07-06T04:51:04.523Z,9756
2017-07-06T04:52:04.565Z,11216
2017-07-06T04:53:04.607Z,12824
2017-07-06T04:54:04.653Z,12700
2017-07-06T04:55:04.692Z,12652
2017-07-06T04:56:04.735Z,12580
2017-07-06T04:57:04.837Z,12484
2017-07-06T04:58:04.821Z,12772
2017-07-06T04:59:04.862Z,12448
2017-07-06T05:00:04.906Z,10772
2017-07-06T05:01:04.944Z,9324
2017-07-06T05:02:04.991Z,8812
2017-07-06T05:03:05.031Z,8784
2017-07-06T05:04:05.112Z,8852
2017-07-06T05:05:05.118Z,9076
2017-07-06T05:06:05.161Z,9472
2017-07-06T05:07:05.204Z,9868
2017-07-06T05:08:05.248Z,10204
2017-07-06T05:09:05.607Z,10296
2017-07-06T05:10:05.332Z,10452
2017-07-06T05:11:05.374Z,10288
2017-07-06T05:12:05.414Z,10580
2017-07-06T05:13:05.460Z,11860
2017-07-06T05:14:05.558Z,12768
2017-07-06T05:15:05.541Z,12100
2017-07-06T05:16:05.581Z,10492
2017-07-06T05:17:05.627Z,10844
2017-07-06T05:18:05.667Z,11816
2017-07-06T05:19:05.710Z,10964
2017-07-06T05:20:05.752Z,10124
2017-07-06T05:21:05.790Z,10004
2017-07-06T05:22:05.837Z,9980
2017-07-06T05:23:05.891Z,10000
2017-07-06T05:24:05.919Z,10028
2017-07-06T05:25:05.961Z,10108
2017-07-06T05:26:06.001Z,10408
2017-07-06T05:27:06.046Z,10452
2017-07-06T05:28:06.087Z,10308
2017-07-06T05:29:06.128Z,10256
2017-07-06T05:30:06.171Z,10368
2017-07-06T05:31:06.209Z,10632
2017-07-06T05:32:06.250Z,10776
2017-07-06T05:33:06.288Z,11356
2017-07-06T05:34:06.337Z,11992
2017-07-06T05:35:06.374Z,11564
2017-07-06T05:36:06.418Z,11536
2017-07-06T05:37:06.464Z,12224
2017-07-06T05:38:06.500Z,12800
2017-07-06T05:39:06.544Z,13300
2017-07-06T05:40:06.584Z,14060
2017-07-06T05:41:06.626Z,16416
2017-07-06T05:42:06.665Z,20288
2017-07-06T05:43:06.711Z,24480
2017-07-06T05:44:06.746Z,26848
2017-07-06T05:45:06.790Z,28128
2017-07-06T05:46:06.841Z,29024
2017-07-06T05:47:06.874Z,28704
2017-07-06T05:48:06.913Z,28288
2017-07-06T05:49:06.962Z,26720
2017-07-06T05:50:07.001Z,20960
2017-07-06T05:51:07.046Z,24512
2017-07-06T05:52:07.087Z,17280
2017-07-06T05:53:07.137Z,15208
2017-07-06T05:54:07.179Z,25056
2017-07-06T05:55:07.225Z,23040
2017-07-06T05:56:07.276Z,34528
2017-07-06T05:57:07.313Z,20928
2017-07-06T05:58:07.358Z,40096
2017-07-06T05:59:07.402Z,38848
2017-07-06T06:00:07.446Z,34336
2017-07-06T06:01:07.494Z,34656
2017-07-06T06:02:07.537Z,35872
2017-07-06T06:03:07.585Z,24800
2017-07-06T06:04:07.632Z,17440
2017-07-06T06:05:07.680Z,24768
2017-07-06T06:06:08.037Z,28672
2017-07-06T06:07:07.769Z,37696
2017-07-06T06:08:07.815Z,23488
2017-07-06T06:09:07.863Z,20384
2017-07-06T06:10:07.956Z,26592
2017-07-06T06:11:08.329Z,25920
2017-07-06T06:12:08.004Z,21184
2017-07-06T06:13:08.059Z,19744
2017-07-06T06:14:08.094Z,24096
2017-07-06T06:15:08.143Z,26144
2017-07-06T06:16:08.191Z,21664
2017-07-06T06:17:08.242Z,38464
2017-07-06T06:18:08.291Z,42528
2017-07-06T06:19:08.333Z,39168
2017-07-06T06:20:08.376Z,43840
2017-07-06T06:21:08.426Z,43008
2017-07-06T06:22:08.470Z,39008
2017-07-06T06:23:08.525Z,31136
2017-07-06T06:24:08.569Z,49408
2017-07-06T06:25:08.615Z,46720
2017-07-06T06:26:08.685Z,50112
2017-07-06T06:27:08.722Z,46368
2017-07-06T06:28:08.767Z,36096
2017-07-06T06:29:08.816Z,42976
2017-07-06T06:30:08.862Z,42176
2017-07-06T06:31:08.910Z,41792
2017-07-06T06:32:08.961Z,51552
2017-07-06T06:33:09.010Z,54400
2017-07-06T06:34:09.063Z,44032
2017-07-06T06:35:09.188Z,41664
2017-07-06T06:36:09.159Z,58912
2017-07-06T06:37:09.221Z,51648
2017-07-06T06:38:09.265Z,22272
2017-07-06T06:39:09.312Z,28000
2017-07-06T06:40:09.385Z,32128
2017-07-06T06:41:09.418Z,22752
2017-07-06T06:42:09.462Z,54464
2017-07-06T06:43:09.515Z,22496
2017-07-06T06:44:09.567Z,41760
2017-07-06T06:45:09.625Z,20288
2017-07-06T06:46:09.676Z,21824
2017-07-06T06:47:09.850Z,40928
2017-07-06T06:48:10.081Z,21216
2017-07-06T06:49:09.821Z,20832
2017-07-06T06:50:09.859Z,21760
2017-07-06T06:51:09.908Z,22272
2017-07-06T06:52:09.960Z,44416
2017-07-06T06:53:10.016Z,59296
2017-07-06T06:54:10.074Z,40992
2017-07-06T06:55:10.108Z,31104
2017-07-06T06:56:10.189Z,55968
2017-07-06T06:57:10.213Z,53472
2017-07-06T06:58:10.304Z,49056
2017-07-06T06:59:10.316Z,53504
2017-07-06T07:00:10.353Z,54144
2017-07-06T07:01:10.403Z,52416
2017-07-06T07:02:10.454Z,63232
2017-07-06T07:03:10.507Z,63872
2017-07-06T07:04:10.554Z,60576
2017-07-06T07:05:10.604Z,61504
2017-07-06T07:06:10.655Z,60864
2017-07-06T07:07:10.704Z,64032
2017-07-06T07:08:10.766Z,65536
2017-07-06T07:09:10.812Z,63328
2017-07-06T07:10:10.864Z,59296
2017-07-06T07:11:10.920Z,60608
2017-07-06T07:12:10.969Z,57952
2017-07-06T07:13:11.030Z,58304
2017-07-06T07:14:11.079Z,60416
2017-07-06T07:15:11.130Z,64544
2017-07-06T07:16:11.183Z,66272
2017-07-06T07:17:11.241Z,64896
2017-07-06T07:18:11.293Z,65792
2017-07-06T07:19:11.347Z,67168
2017-07-06T07:20:11.401Z,65248
2017-07-06T07:21:11.452Z,59872
2017-07-06T07:22:11.506Z,60320
2017-07-06T07:23:11.562Z,62848
2017-07-06T07:24:11.618Z,62496
2017-07-06T07:25:11.674Z,57216
2017-07-06T07:26:11.728Z,61120
2017-07-06T07:27:11.781Z,59072
2017-07-06T07:28:11.840Z,60128
2017-07-06T07:29:11.894Z,43328
2017-07-06T07:30:11.948Z,31904
2017-07-06T07:31:12.002Z,29120
2017-07-06T07:32:12.056Z,29472
2017-07-06T07:33:12.110Z,31456
2017-07-06T07:34:12.161Z,32448
2017-07-06T07:35:12.217Z,34656
2017-07-06T07:36:12.273Z,35136
2017-07-06T07:37:12.322Z,39712
2017-07-06T07:38:12.375Z,29920
2017-07-06T07:39:12.427Z,48352
2017-07-06T07:40:12.490Z,55968
2017-07-06T07:41:12.537Z,26752
2017-07-06T07:42:12.582Z,44096
2017-07-06T07:43:12.634Z,26624
2017-07-06T07:44:12.688Z,68800
2017-07-06T07:45:12.740Z,28608
2017-07-06T07:46:12.789Z,31680
2017-07-06T07:47:12.841Z,25472
2017-07-06T07:48:12.894Z,44160
2017-07-06T07:49:12.943Z,33952
2017-07-06T07:50:12.994Z,42592
2017-07-06T07:51:13.048Z,64256
2017-07-06T07:52:13.095Z,66144
2017-07-06T07:53:13.159Z,76768
2017-07-06T07:54:13.522Z,55456
2017-07-06T07:55:13.255Z,79264
2017-07-06T07:56:13.304Z,79296
2017-07-06T07:57:13.355Z,84032
2017-07-06T07:58:13.410Z,82016
2017-07-06T07:59:13.464Z,78976
2017-07-06T08:00:13.518Z,75424
2017-07-06T08:01:15.771Z,63776
2017-07-06T08:02:13.622Z,67616
2017-07-06T08:03:16.464Z,73440
2017-07-06T08:04:16.037Z,70784
2017-07-06T08:05:13.788Z,73472
2017-07-06T08:06:16.510Z,76864
2017-07-06T08:07:13.898Z,77760
2017-07-06T08:08:13.951Z,79744
2017-07-06T08:09:14.013Z,76608
2017-07-06T08:10:14.062Z,78432
2017-07-06T08:11:14.118Z,78144
2017-07-06T08:12:14.174Z,78752
2017-07-06T08:13:14.233Z,77504
2017-07-06T08:14:14.290Z,75072
2017-07-06T08:15:14.657Z,74624
2017-07-06T08:16:14.400Z,79712
2017-07-06T08:17:14.458Z,83232
2017-07-06T08:18:14.511Z,82112
2017-07-06T08:19:14.580Z,87168
2017-07-06T08:20:14.627Z,92160
2017-07-06T08:21:14.699Z,92544
2017-07-06T08:22:14.746Z,94784
2017-07-06T08:23:14.802Z,83808
2017-07-06T08:24:14.856Z,94400
2017-07-06T08:25:14.912Z,95840
2017-07-06T08:26:14.971Z,87712
2017-07-06T08:27:15.028Z,78528
2017-07-06T08:28:15.088Z,75072
2017-07-06T08:29:15.143Z,73824
2017-07-06T08:30:15.201Z,79456
2017-07-06T08:31:15.255Z,80512
2017-07-06T08:32:15.635Z,84096
2017-07-06T08:33:15.372Z,85568
2017-07-06T08:34:15.429Z,84608
2017-07-06T08:35:15.485Z,76288
2017-07-06T08:36:15.547Z,78048
2017-07-06T08:37:15.603Z,73792
2017-07-06T08:38:15.659Z,78176
2017-07-06T08:39:15.715Z,85856
2017-07-06T08:40:15.771Z,91072
2017-07-06T08:41:15.829Z,69120
2017-07-06T08:42:15.890Z,88512
2017-07-06T08:43:15.947Z,51456
2017-07-06T08:44:16.005Z,57536
2017-07-06T08:45:16.061Z,73440
2017-07-06T08:46:16.118Z,45280
2017-07-06T08:47:16.176Z,74336
2017-07-06T08:48:16.553Z,56800
2017-07-06T08:49:16.297Z,73600
2017-07-06T08:50:16.344Z,71808
2017-07-06T08:51:16.403Z,78848
2017-07-06T08:52:16.463Z,68864
2017-07-06T08:53:16.831Z,88224
2017-07-06T08:54:16.571Z,92224
2017-07-06T08:55:16.629Z,62976
2017-07-06T08:56:17.011Z,51488
2017-07-06T08:57:16.744Z,74624
2017-07-06T08:58:16.815Z,95168
2017-07-06T08:59:16.856Z,89216
2017-07-06T09:00:16.910Z,88192
2017-07-06T09:01:18.776Z,88832
2017-07-06T09:02:17.026Z,86848
2017-07-06T09:03:17.084Z,87040
2017-07-06T09:04:17.141Z,85280
2017-07-06T09:05:17.199Z,81504
2017-07-06T09:06:17.257Z,47744
2017-07-06T09:07:17.310Z,47200
2017-07-06T09:08:17.369Z,43840
2017-07-06T09:09:17.429Z,70816
2017-07-06T09:10:17.480Z,26272
2017-07-06T09:11:17.541Z,30048
2017-07-06T09:12:17.593Z,46880
2017-07-06T09:13:17.649Z,24736
2017-07-06T09:14:17.705Z,22624
2017-07-06T09:15:17.760Z,25504
2017-07-06T09:16:17.813Z,66720
2017-07-06T09:17:17.868Z,42944
2017-07-06T09:18:17.923Z,34944
2017-07-06T09:19:17.982Z,53376
2017-07-06T09:20:18.030Z,22272
2017-07-06T09:21:18.088Z,58848
2017-07-06T09:22:18.138Z,25792
2017-07-06T09:23:18.190Z,26112
2017-07-06T09:24:18.247Z,88992
2017-07-06T09:25:18.301Z,86496
2017-07-06T09:26:18.353Z,75552
2017-07-06T09:27:18.407Z,72384
2017-07-06T09:28:18.459Z,53120
2017-07-06T09:29:18.516Z,89216
2017-07-06T09:30:18.569Z,96640
2017-07-06T09:31:18.623Z,91136
2017-07-06T09:32:18.677Z,62656
2017-07-06T09:33:18.732Z,79616
2017-07-06T09:34:19.008Z,78880
2017-07-06T09:35:18.839Z,81408
2017-07-06T09:36:18.897Z,73472
2017-07-06T09:37:18.949Z,44576
2017-07-06T09:38:19.004Z,53792
2017-07-06T09:39:19.059Z,49888
2017-07-06T09:40:19.117Z,29536
2017-07-06T09:41:19.171Z,29792
2017-07-06T09:42:19.228Z,34176
2017-07-06T09:43:19.281Z,37568
2017-07-06T09:44:19.335Z,28448
2017-07-06T09:45:19.389Z,60352
2017-07-06T09:46:19.444Z,44256
2017-07-06T09:47:19.719Z,35040
2017-07-06T09:48:19.551Z,77312
2017-07-06T09:49:19.606Z,54496
2017-07-06T09:50:19.659Z,80128
2017-07-06T09:51:20.030Z,84576
2017-07-06T09:52:19.768Z,30496
2017-07-06T09:53:19.820Z,39712
2017-07-06T09:54:19.878Z,29920
2017-07-06T09:55:19.932Z,53632
2017-07-06T09:56:19.983Z,71552
2017-07-06T09:57:20.040Z,80352
2017-07-06T09:58:20.095Z,61440
2017-07-06T09:59:20.153Z,85888
2017-07-06T10:00:20.202Z,87776
2017-07-06T10:01:20.255Z,82528
2017-07-06T10:02:20.312Z,79360
2017-07-06T10:03:20.375Z,30112
2017-07-06T10:04:20.423Z,71584
2017-07-06T10:05:20.478Z,81888
2017-07-06T10:06:20.533Z,91040
2017-07-06T10:07:20.589Z,89248
2017-07-06T10:08:20.644Z,88256
2017-07-06T10:09:20.699Z,32096
2017-07-06T10:10:20.770Z,32480
2017-07-06T10:11:20.813Z,34336
2017-07-06T10:12:20.865Z,55264
2017-07-06T10:13:20.921Z,67200
2017-07-06T10:14:20.979Z,82272
2017-07-06T10:15:21.031Z,86944
2017-07-06T10:16:21.092Z,83200
2017-07-06T10:17:21.144Z,83008
2017-07-06T10:18:21.198Z,66944
2017-07-06T10:19:21.254Z,64320
2017-07-06T10:20:21.311Z,72768
2017-07-06T10:21:21.367Z,71328
2017-07-06T10:22:21.423Z,73984
2017-07-06T10:23:21.477Z,23392
2017-07-06T10:24:21.543Z,67712
2017-07-06T10:25:21.589Z,26816
2017-07-06T10:26:21.646Z,40672
2017-07-06T10:27:22.026Z,62240
2017-07-06T10:28:21.759Z,70368
2017-07-06T10:29:21.817Z,71392
2017-07-06T10:30:21.866Z,71840
2017-07-06T10:31:21.926Z,74752
2017-07-06T10:32:21.982Z,76544
2017-07-06T10:33:22.038Z,79840
2017-07-06T10:34:22.091Z,78624
2017-07-06T10:35:22.150Z,83264
2017-07-06T10:36:22.206Z,82752
2017-07-06T10:37:22.260Z,83616
2017-07-06T10:38:22.318Z,66656
2017-07-06T10:39:22.377Z,79264
2017-07-06T10:40:22.429Z,85344
2017-07-06T10:41:22.485Z,87712
2017-07-06T10:42:22.545Z,88480
2017-07-06T10:43:22.599Z,86368
2017-07-06T10:44:22.659Z,85760
2017-07-06T10:45:22.716Z,84480
2017-07-06T10:46:22.774Z,80352
2017-07-06T10:47:22.829Z,78048
2017-07-06T10:48:22.892Z,79648
2017-07-06T10:49:22.944Z,84832
2017-07-06T10:50:23.003Z,92384
2017-07-06T10:51:23.382Z,96736
2017-07-06T10:52:23.122Z,96288
2017-07-06T10:53:23.176Z,92064
2017-07-06T10:54:23.237Z,86912
2017-07-06T10:55:23.295Z,80992
2017-07-06T10:56:23.353Z,36608
2017-07-06T10:57:23.409Z,14600
2017-07-06T10:58:23.467Z,21632
2017-07-06T10:59:23.528Z,79520
2017-07-06T11:00:23.580Z,93024
2017-07-06T11:01:23.642Z,49824
2017-07-06T11:02:23.696Z,91488
2017-07-06T11:03:23.754Z,25696
2017-07-06T11:04:23.809Z,31584
2017-07-06T11:05:23.864Z,41344
2017-07-06T11:06:23.917Z,38176
2017-07-06T11:07:23.978Z,28288
2017-07-06T11:08:24.362Z,23872
2017-07-06T11:09:24.086Z,21376
2017-07-06T11:10:24.141Z,19552
2017-07-06T11:11:24.198Z,18624
2017-07-06T11:12:24.252Z,17600
2017-07-06T11:13:24.304Z,16832
2017-07-06T11:14:24.357Z,15488
2017-07-06T11:15:24.411Z,13596
2017-07-06T11:16:24.495Z,12188
2017-07-06T11:17:24.516Z,12004
2017-07-06T11:18:24.566Z,12336
2017-07-06T11:19:24.619Z,12016
2017-07-06T11:20:24.669Z,10684
2017-07-06T11:21:24.718Z,10380
2017-07-06T11:22:24.768Z,10252
2017-07-06T11:23:24.815Z,10060
2017-07-06T11:24:24.866Z,9852
2017-07-06T11:25:25.232Z,9780
2017-07-06T11:26:24.968Z,10388
2017-07-06T11:27:25.573Z,13156
2017-07-06T11:28:25.388Z,16224
2017-07-06T11:29:25.115Z,18336
2017-07-06T11:30:25.163Z,16808
2017-07-06T11:31:25.210Z,15592
2017-07-06T11:32:25.265Z,14896
2017-07-06T11:33:25.312Z,14824
2017-07-06T11:34:25.360Z,14664
2017-07-06T11:35:25.414Z,14028
2017-07-06T11:36:25.458Z,14452
2017-07-06T11:37:25.509Z,14228
2017-07-06T11:38:25.556Z,13716
2017-07-06T11:39:25.605Z,13544
2017-07-06T11:40:25.659Z,13320
2017-07-06T11:41:25.701Z,13496
2017-07-06T11:42:25.749Z,13804
2017-07-06T11:43:25.805Z,14140
2017-07-06T11:44:25.849Z,13728
2017-07-06T11:45:25.897Z,13448
2017-07-06T11:46:25.940Z,13364
2017-07-06T11:47:25.992Z,13384
2017-07-06T11:48:26.037Z,13620
2017-07-06T11:49:26.093Z,13484
2017-07-06T11:50:26.136Z,13328
2017-07-06T11:51:26.190Z,13244
2017-07-06T11:52:26.233Z,12876
2017-07-06T11:53:26.277Z,12096
2017-07-06T11:54:26.323Z,11440
2017-07-06T11:55:26.383Z,11560
2017-07-06T11:56:26.423Z,11644
2017-07-06T11:57:26.469Z,11036
2017-07-06T11:58:26.516Z,10684
2017-07-06T11:59:26.567Z,10872
2017-07-06T12:00:26.613Z,11800
2017-07-06T12:01:26.661Z,12516
2017-07-06T12:02:26.712Z,12804
2017-07-06T12:03:26.763Z,11960
2017-07-06T12:04:26.807Z,11272
2017-07-06T12:05:26.852Z,11088
2017-07-06T12:06:26.902Z,11740
2017-07-06T12:07:26.951Z,12196
2017-07-06T12:08:26.995Z,12360
2017-07-06T12:09:27.042Z,11944
2017-07-06T12:10:27.090Z,11944
2017-07-06T12:11:27.142Z,11616
2017-07-06T12:12:27.186Z,11100
2017-07-06T12:13:27.236Z,10844
2017-07-06T12:14:27.282Z,10884
2017-07-06T12:15:27.328Z,10680
2017-07-06T12:16:27.374Z,10436
2017-07-06T12:17:27.424Z,10212
2017-07-06T12:18:27.473Z,10280
2017-07-06T12:19:27.519Z,10640
2017-07-06T12:20:27.579Z,10248
2017-07-06T12:21:27.614Z,10624
2017-07-06T12:22:27.669Z,11244
2017-07-06T12:23:27.709Z,11004
2017-07-06T12:24:27.756Z,10568
2017-07-06T12:25:27.802Z,10924
2017-07-06T12:26:27.850Z,11432
2017-07-06T12:27:27.905Z,11572
2017-07-06T12:28:27.943Z,11308
2017-07-06T12:29:27.991Z,10896
2017-07-06T12:30:28.037Z,10340
2017-07-06T12:31:28.087Z,9868
2017-07-06T12:32:28.133Z,9440
2017-07-06T12:33:28.183Z,8816
2017-07-06T12:34:28.228Z,8308
2017-07-06T12:35:28.275Z,7816
2017-07-06T12:36:28.320Z,7604
2017-07-06T12:37:28.369Z,7940
2017-07-06T12:38:28.416Z,8396
2017-07-06T12:39:28.466Z,8684
2017-07-06T12:40:28.510Z,9180
2017-07-06T12:41:28.557Z,9024
2017-07-06T12:42:28.633Z,8640
2017-07-06T12:43:28.651Z,8348
2017-07-06T12:44:28.698Z,8392
2017-07-06T12:45:28.743Z,8860
2017-07-06T12:46:28.787Z,8744
2017-07-06T12:47:28.841Z,8804
2017-07-06T12:48:28.893Z,9008
2017-07-06T12:49:28.982Z,8812
2017-07-06T12:50:29.290Z,8892
2017-07-06T12:51:29.025Z,8368
2017-07-06T12:52:29.074Z,7964
2017-07-06T12:53:29.117Z,7664
2017-07-06T12:54:29.167Z,7264
2017-07-06T12:55:29.211Z,7144
2017-07-06T12:56:29.259Z,6836
2017-07-06T12:57:29.309Z,6776
2017-07-06T12:58:29.352Z,7108
2017-07-06T12:59:29.397Z,6852
2017-07-06T13:00:29.445Z,6340
2017-07-06T13:01:29.496Z,6216
2017-07-06T13:02:29.533Z,5952
2017-07-06T13:03:29.580Z,5924
2017-07-06T13:04:29.591Z,5852
2017-07-06T13:05:29.673Z,5984
2017-07-06T13:06:29.719Z,5904
2017-07-06T13:07:29.766Z,6136
2017-07-06T13:08:29.812Z,6552
2017-07-06T13:09:29.861Z,6776
2017-07-06T13:10:30.219Z,6812
2017-07-06T13:11:29.952Z,6924
2017-07-06T13:12:30.013Z,7288
2017-07-06T13:13:30.042Z,7980
2017-07-06T13:14:30.094Z,8712
2017-07-06T13:15:30.135Z,8676
2017-07-06T13:16:30.182Z,8592
2017-07-06T13:17:30.227Z,8368
2017-07-06T13:18:30.278Z,8240
2017-07-06T13:19:30.321Z,8228
2017-07-06T13:20:30.365Z,8208
2017-07-06T13:21:30.414Z,8068
2017-07-06T13:22:30.457Z,8152